KFCH/FCH METAR and TAF weather

Enter ICAO airport designator
Station Type Date Time Source
KFCH METAR 2019/08/24 22:55 UTC NOAA

KFCH 242255Z AUTO VRB05G11KT 10SM CLR 37/15 A2985 RMK A01


Station Type Date Time Source
KFCH Decoded METAR 2019/08/24 22:55 UTC NOAA

Station name not available
Aug 24, 2019 - 06:55 PM EDT / 2019.08.24 2255 UTC
Wind: Variable at 6 MPH (5 KT) gusting to 13 MPH (11 KT):0
Visibility: 10 mile(s):0
Sky conditions: clear
Temperature: 98 F (37 C)
Heat index: 97.5 F (36.4 C):1
Dew Point: 59 F (15 C)
Relative Humidity: 27%
Pressure (altimeter): 29.85 in. Hg (1010 hPa)
ob: KFCH 242255Z AUTO VRB05G11KT 10SM CLR 37/15 A2985 RMK A01
cycle: 23

Station Type Date Time Source
KFCH TAF UTC NOAA

Error!

Example: see airport list